sensor_id;sensor_type;location;lat;lon;timestamp;pressure;altitude;pressure_sealevel;temperature;humidity
64687;BME280;51113;53.646;-113.674;2023-09-30T00:02:12;93664.25;;;7.55;77.10
64687;BME280;51113;53.646;-113.674;2023-09-30T00:04:40;93662.34;;;7.45;77.35
64687;BME280;51113;53.646;-113.674;2023-09-30T00:07:08;93663.53;;;7.38;79.99
64687;BME280;51113;53.646;-113.674;2023-09-30T00:09:37;93669.59;;;7.27;80.63
64687;BME280;51113;53.646;-113.674;2023-09-30T00:12:06;93668.34;;;7.29;79.52
64687;BME280;51113;53.646;-113.674;2023-09-30T00:14:35;93672.97;;;7.27;79.93
64687;BME280;51113;53.646;-113.674;2023-09-30T00:17:05;93685.63;;;7.29;78.57
64687;BME280;51113;53.646;-113.674;2023-09-30T00:19:34;93683.63;;;7.14;77.59
64687;BME280;51113;53.646;-113.674;2023-09-30T00:22:02;93680.19;;;7.08;77.80
64687;BME280;51113;53.646;-113.674;2023-09-30T00:24:32;93687.56;;;7.00;79.39
64687;BME280;51113;53.646;-113.674;2023-09-30T00:27:00;93686.47;;;6.96;80.46
64687;BME280;51113;53.646;-113.674;2023-09-30T00:29:29;93679.38;;;6.86;79.89
64687;BME280;51113;53.646;-113.674;2023-09-30T00:31:58;93695.09;;;6.85;78.18
64687;BME280;51113;53.646;-113.674;2023-09-30T00:34:26;93700.41;;;6.78;79.62
64687;BME280;51113;53.646;-113.674;2023-09-30T00:36:55;93697.84;;;6.78;79.32
64687;BME280;51113;53.646;-113.674;2023-09-30T00:39:24;93695.50;;;6.60;81.90
64687;BME280;51113;53.646;-113.674;2023-09-30T00:41:55;93706.19;;;6.52;82.57
64687;BME280;51113;53.646;-113.674;2023-09-30T00:44:25;93707.81;;;6.41;82.93
64687;BME280;51113;53.646;-113.674;2023-09-30T00:46:54;93704.38;;;6.35;82.78
64687;BME280;51113;53.646;-113.674;2023-09-30T00:49:25;93710.47;;;6.29;84.21
64687;BME280;51113;53.646;-113.674;2023-09-30T00:51:54;93711.31;;;6.18;84.76
64687;BME280;51113;53.646;-113.674;2023-09-30T00:54:24;93711.13;;;6.08;83.98
64687;BME280;51113;53.646;-113.674;2023-09-30T00:56:54;93715.44;;;5.91;85.98
64687;BME280;51113;53.646;-113.674;2023-09-30T00:59:30;93715.69;;;5.77;86.46
64687;BME280;51113;53.646;-113.674;2023-09-30T01:02:00;93723.81;;;5.58;88.03
64687;BME280;51113;53.646;-113.674;2023-09-30T01:04:30;93714.06;;;5.48;88.42
64687;BME280;51113;53.646;-113.674;2023-09-30T01:06:58;93720.81;;;5.37;89.09
64687;BME280;51113;53.646;-113.674;2023-09-30T01:09:27;93727.09;;;5.18;90.07
64687;BME280;51113;53.646;-113.674;2023-09-30T01:11:56;93735.03;;;5.16;89.76
64687;BME280;51113;53.646;-113.674;2023-09-30T01:16:57;93730.13;;;4.92;90.82
64687;BME280;51113;53.646;-113.674;2023-09-30T01:19:27;93738.38;;;4.82;91.36
64687;BME280;51113;53.646;-113.674;2023-09-30T01:21:59;93724.72;;;4.70;91.59
64687;BME280;51113;53.646;-113.674;2023-09-30T01:24:28;93747.19;;;4.63;91.86
64687;BME280;51113;53.646;-113.674;2023-09-30T01:26:57;93742.72;;;4.58;92.89
64687;BME280;51113;53.646;-113.674;2023-09-30T01:29:27;93753.88;;;4.52;92.51
64687;BME280;51113;53.646;-113.674;2023-09-30T01:31:56;93752.06;;;4.41;93.38
64687;BME280;51113;53.646;-113.674;2023-09-30T01:34:25;93759.13;;;4.45;93.61
64687;BME280;51113;53.646;-113.674;2023-09-30T01:36:54;93755.38;;;4.30;93.80
64687;BME280;51113;53.646;-113.674;2023-09-30T01:39:22;93767.31;;;4.24;93.96
64687;BME280;51113;53.646;-113.674;2023-09-30T01:41:51;93766.75;;;4.22;94.54
64687;BME280;51113;53.646;-113.674;2023-09-30T01:44:19;93769.75;;;4.19;94.41
64687;BME280;51113;53.646;-113.674;2023-09-30T01:46:48;93765.06;;;4.16;95.11
64687;BME280;51113;53.646;-113.674;2023-09-30T01:49:17;93766.59;;;4.05;94.80
64687;BME280;51113;53.646;-113.674;2023-09-30T01:51:46;93777.06;;;4.04;94.80
64687;BME280;51113;53.646;-113.674;2023-09-30T01:54:15;93782.66;;;4.01;95.31
64687;BME280;51113;53.646;-113.674;2023-09-30T01:56:43;93786.13;;;4.06;94.94
64687;BME280;51113;53.646;-113.674;2023-09-30T01:59:11;93783.94;;;3.92;95.75
64687;BME280;51113;53.646;-113.674;2023-09-30T02:01:39;93790.22;;;3.77;95.97
64687;BME280;51113;53.646;-113.674;2023-09-30T02:04:08;93790.66;;;3.74;96.66
64687;BME280;51113;53.646;-113.674;2023-09-30T02:06:36;93789.38;;;3.83;96.21
64687;BME280;51113;53.646;-113.674;2023-09-30T02:09:05;93784.66;;;3.99;95.20
64687;BME280;51113;53.646;-113.674;2023-09-30T02:11:36;93789.41;;;4.13;94.34
64687;BME280;51113;53.646;-113.674;2023-09-30T02:14:05;93792.63;;;4.09;94.36
64687;BME280;51113;53.646;-113.674;2023-09-30T02:16:34;93792.63;;;4.09;95.18
64687;BME280;51113;53.646;-113.674;2023-09-30T02:19:03;93802.91;;;4.09;94.71
64687;BME280;51113;53.646;-113.674;2023-09-30T02:21:31;93796.63;;;4.05;95.22
64687;BME280;51113;53.646;-113.674;2023-09-30T02:24:00;93798.06;;;4.01;95.17
64687;BME280;51113;53.646;-113.674;2023-09-30T02:26:28;93802.75;;;4.04;95.19
64687;BME280;51113;53.646;-113.674;2023-09-30T02:28:57;93804.63;;;3.97;95.44
64687;BME280;51113;53.646;-113.674;2023-09-30T02:31:25;93810.56;;;3.97;95.25
64687;BME280;51113;53.646;-113.674;2023-09-30T02:33:54;93814.63;;;3.86;95.84
64687;BME280;51113;53.646;-113.674;2023-09-30T02:36:23;93815.47;;;3.80;96.09
64687;BME280;51113;53.646;-113.674;2023-09-30T02:38:52;93824.13;;;3.86;95.96
64687;BME280;51113;53.646;-113.674;2023-09-30T02:41:20;93820.47;;;3.75;95.46
64687;BME280;51113;53.646;-113.674;2023-09-30T02:43:49;93825.19;;;3.78;95.93
64687;BME280;51113;53.646;-113.674;2023-09-30T02:46:18;93824.41;;;3.78;96.52
64687;BME280;51113;53.646;-113.674;2023-09-30T02:48:46;93840.88;;;3.70;96.20
64687;BME280;51113;53.646;-113.674;2023-09-30T02:51:15;93836.75;;;3.69;96.46
64687;BME280;51113;53.646;-113.674;2023-09-30T02:53:43;93830.19;;;3.73;97.27
64687;BME280;51113;53.646;-113.674;2023-09-30T02:56:12;93836.75;;;3.69;96.31
64687;BME280;51113;53.646;-113.674;2023-09-30T02:58:40;93839.78;;;3.60;96.11
64687;BME280;51113;53.646;-113.674;2023-09-30T03:01:08;93835.50;;;3.53;96.55
64687;BME280;51113;53.646;-113.674;2023-09-30T03:03:38;93836.34;;;3.47;96.30
64687;BME280;51113;53.646;-113.674;2023-09-30T03:06:08;93838.72;;;3.49;96.54
64687;BME280;51113;53.646;-113.674;2023-09-30T03:08:37;93838.72;;;3.49;96.24
64687;BME280;51113;53.646;-113.674;2023-09-30T03:11:05;93852.81;;;3.40;96.54
64687;BME280;51113;53.646;-113.674;2023-09-30T03:13:34;93848.09;;;3.37;96.48
64687;BME280;51113;53.646;-113.674;2023-09-30T03:16:03;93844.75;;;3.36;96.50
64687;BME280;51113;53.646;-113.674;2023-09-30T03:18:34;93849.88;;;3.36;96.04
64687;BME280;51113;53.646;-113.674;2023-09-30T03:21:13;93850.25;;;3.15;97.26
64687;BME280;51113;53.646;-113.674;2023-09-30T03:23:43;93853.50;;;3.04;97.08
64687;BME280;51113;53.646;-113.674;2023-09-30T03:26:12;93861.25;;;2.97;97.59
64687;BME280;51113;53.646;-113.674;2023-09-30T03:28:41;93861.53;;;2.82;97.76
64687;BME280;51113;53.646;-113.674;2023-09-30T03:31:10;93858.47;;;2.67;98.21
64687;BME280;51113;53.646;-113.674;2023-09-30T03:33:39;93868.16;;;2.65;98.53
64687;BME280;51113;53.646;-113.674;2023-09-30T03:36:08;93870.53;;;2.60;98.69
64687;BME280;51113;53.646;-113.674;2023-09-30T03:38:37;93868.81;;;2.54;98.81
64687;BME280;51113;53.646;-113.674;2023-09-30T03:41:07;93875.50;;;2.55;98.69
64687;BME280;51113;53.646;-113.674;2023-09-30T03:43:36;93876.31;;;2.49;98.81
64687;BME280;51113;53.646;-113.674;2023-09-30T03:46:09;93880.91;;;2.40;99.04
64687;BME280;51113;53.646;-113.674;2023-09-30T03:48:38;93884.22;;;2.47;98.97
64687;BME280;51113;53.646;-113.674;2023-09-30T03:51:14;93895.06;;;2.43;98.81
64687;BME280;51113;53.646;-113.674;2023-09-30T03:53:44;93887.75;;;2.46;99.38
64687;BME280;51113;53.646;-113.674;2023-09-30T03:56:13;93891.72;;;2.42;99.05
64687;BME280;51113;53.646;-113.674;2023-09-30T03:58:42;93882.31;;;2.30;99.11
64687;BME280;51113;53.646;-113.674;2023-09-30T04:01:12;93891.19;;;2.27;99.20
64687;BME280;51113;53.646;-113.674;2023-09-30T04:03:47;93899.25;;;2.37;99.32
64687;BME280;51113;53.646;-113.674;2023-09-30T04:06:16;93901.25;;;2.29;99.70
64687;BME280;51113;53.646;-113.674;2023-09-30T04:08:45;93903.59;;;2.30;99.64
64687;BME280;51113;53.646;-113.674;2023-09-30T04:11:14;93908.31;;;2.33;99.61
64687;BME280;51113;53.646;-113.674;2023-09-30T04:13:46;93908.09;;;2.41;100.00
64687;BME280;51113;53.646;-113.674;2023-09-30T04:16:15;93905.31;;;2.49;99.42
64687;BME280;51113;53.646;-113.674;2023-09-30T04:18:43;93909.25;;;2.45;99.25
64687;BME280;51113;53.646;-113.674;2023-09-30T04:21:12;93916.13;;;2.51;98.79
64687;BME280;51113;53.646;-113.674;2023-09-30T04:23:41;93908.28;;;2.46;98.64
64687;BME280;51113;53.646;-113.674;2023-09-30T04:26:09;93910.03;;;2.46;98.68
64687;BME280;51113;53.646;-113.674;2023-09-30T04:28:38;93914.78;;;2.42;99.18
64687;BME280;51113;53.646;-113.674;2023-09-30T04:31:07;93909.66;;;2.42;99.29
64687;BME280;51113;53.646;-113.674;2023-09-30T04:33:40;93905.94;;;2.38;99.13
64687;BME280;51113;53.646;-113.674;2023-09-30T04:36:08;93912.63;;;2.39;99.53
64687;BME280;51113;53.646;-113.674;2023-09-30T04:38:37;93910.28;;;2.38;99.57
64687;BME280;51113;53.646;-113.674;2023-09-30T04:41:07;93909.88;;;2.41;99.63
64687;BME280;51113;53.646;-113.674;2023-09-30T04:43:36;93915.56;;;2.43;99.41
64687;BME280;51113;53.646;-113.674;2023-09-30T04:46:07;93921.50;;;2.43;99.69
64687;BME280;51113;53.646;-113.674;2023-09-30T04:48:36;93915.97;;;2.40;99.72
64687;BME280;51113;53.646;-113.674;2023-09-30T04:51:08;93922.69;;;2.41;100.00
64687;BME280;51113;53.646;-113.674;2023-09-30T04:53:40;93921.72;;;2.35;99.88
64687;BME280;51113;53.646;-113.674;2023-09-30T04:56:08;93915.63;;;2.30;100.00
64687;BME280;51113;53.646;-113.674;2023-09-30T04:58:37;93923.13;;;2.31;99.63
64687;BME280;51113;53.646;-113.674;2023-09-30T05:01:06;93928.66;;;2.21;100.00
64687;BME280;51113;53.646;-113.674;2023-09-30T05:03:37;93935.19;;;2.17;100.00
64687;BME280;51113;53.646;-113.674;2023-09-30T05:06:06;93936.56;;;2.13;100.00
64687;BME280;51113;53.646;-113.674;2023-09-30T05:08:36;93942.91;;;2.04;100.00
64687;BME280;51113;53.646;-113.674;2023-09-30T05:11:04;93940.53;;;1.96;100.00
64687;BME280;51113;53.646;-113.674;2023-09-30T05:13:33;93939.56;;;1.90;100.00
64687;BME280;51113;53.646;-113.674;2023-09-30T05:16:02;93946.28;;;1.91;100.00
64687;BME280;51113;53.646;-113.674;2023-09-30T05:18:35;93945.69;;;1.89;100.00
64687;BME280;51113;53.646;-113.674;2023-09-30T05:21:05;93947.03;;;1.99;100.00
64687;BME280;51113;53.646;-113.674;2023-09-30T05:23:34;93946.63;;;2.08;100.00
64687;BME280;51113;53.646;-113.674;2023-09-30T05:26:04;93951.72;;;2.21;100.00
64687;BME280;51113;53.646;-113.674;2023-09-30T05:28:32;93953.50;;;2.21;100.00
64687;BME280;51113;53.646;-113.674;2023-09-30T05:31:01;93959.19;;;2.23;100.00
64687;BME280;51113;53.646;-113.674;2023-09-30T05:33:30;93956.47;;;2.18;100.00
64687;BME280;51113;53.646;-113.674;2023-09-30T05:35:59;93956.06;;;2.21;100.00
64687;BME280;51113;53.646;-113.674;2023-09-30T05:38:30;93948.19;;;2.16;100.00
64687;BME280;51113;53.646;-113.674;2023-09-30T05:40:59;93957.25;;;2.12;100.00
64687;BME280;51113;53.646;-113.674;2023-09-30T05:43:29;93961.03;;;2.03;100.00
64687;BME280;51113;53.646;-113.674;2023-09-30T05:45:58;93967.13;;;1.95;100.00
64687;BME280;51113;53.646;-113.674;2023-09-30T05:48:28;93960.84;;;1.84;100.00
64687;BME280;51113;53.646;-113.674;2023-09-30T05:50:57;93967.34;;;1.80;100.00
64687;BME280;51113;53.646;-113.674;2023-09-30T05:53:25;93973.06;;;1.76;100.00
64687;BME280;51113;53.646;-113.674;2023-09-30T05:55:55;93970.50;;;1.76;100.00
64687;BME280;51113;53.646;-113.674;2023-09-30T05:58:24;93969.53;;;1.77;100.00
64687;BME280;51113;53.646;-113.674;2023-09-30T06:00:53;93975.44;;;1.71;100.00
64687;BME280;51113;53.646;-113.674;2023-09-30T06:03:21;93975.44;;;1.71;100.00
64687;BME280;51113;53.646;-113.674;2023-09-30T06:05:50;93948.06;;;1.65;100.00
64687;BME280;51113;53.646;-113.674;2023-09-30T06:08:19;93977.78;;;1.85;100.00
64687;BME280;51113;53.646;-113.674;2023-09-30T06:10:49;93981.72;;;1.88;100.00
64687;BME280;51113;53.646;-113.674;2023-09-30T06:13:17;93982.91;;;1.99;100.00
64687;BME280;51113;53.646;-113.674;2023-09-30T06:15:46;93977.19;;;1.97;100.00
64687;BME280;51113;53.646;-113.674;2023-09-30T06:18:14;93977.78;;;1.99;100.00
64687;BME280;51113;53.646;-113.674;2023-09-30T06:20:43;93977.97;;;1.90;100.00
64687;BME280;51113;53.646;-113.674;2023-09-30T06:23:12;93982.13;;;1.91;100.00
64687;BME280;51113;53.646;-113.674;2023-09-30T06:25:41;93986.84;;;1.94;100.00
64687;BME280;51113;53.646;-113.674;2023-09-30T06:28:10;93990.97;;;1.96;100.00
64687;BME280;51113;53.646;-113.674;2023-09-30T06:30:40;93995.13;;;1.90;100.00
64687;BME280;51113;53.646;-113.674;2023-09-30T06:33:10;93990.38;;;1.87;100.00
64687;BME280;51113;53.646;-113.674;2023-09-30T06:35:41;93992.56;;;1.70;100.00
64687;BME280;51113;53.646;-113.674;2023-09-30T06:38:21;93997.09;;;1.68;100.00
64687;BME280;51113;53.646;-113.674;2023-09-30T06:40:50;93999.06;;;1.66;100.00
64687;BME280;51113;53.646;-113.674;2023-09-30T06:43:18;93991.19;;;1.61;100.00
64687;BME280;51113;53.646;-113.674;2023-09-30T06:45:47;93996.09;;;1.63;100.00
64687;BME280;51113;53.646;-113.674;2023-09-30T06:48:17;93994.34;;;1.56;100.00
64687;BME280;51113;53.646;-113.674;2023-09-30T06:50:46;93988.81;;;1.59;100.00
64687;BME280;51113;53.646;-113.674;2023-09-30T06:53:17;93991.97;;;1.68;100.00
64687;BME280;51113;53.646;-113.674;2023-09-30T06:55:46;93993.16;;;1.72;100.00
64687;BME280;51113;53.646;-113.674;2023-09-30T06:58:15;93988.44;;;1.63;100.00
64687;BME280;51113;53.646;-113.674;2023-09-30T07:00:52;93996.69;;;1.71;100.00
64687;BME280;51113;53.646;-113.674;2023-09-30T07:03:24;93992.75;;;1.69;100.00
64687;BME280;51113;53.646;-113.674;2023-09-30T07:05:53;94006.53;;;1.87;100.00
64687;BME280;51113;53.646;-113.674;2023-09-30T07:08:28;94004.97;;;1.86;100.00
64687;BME280;51113;53.646;-113.674;2023-09-30T07:10:58;94004.97;;;1.80;100.00
64687;BME280;51113;53.646;-113.674;2023-09-30T07:13:26;93990.38;;;1.87;100.00
64687;BME280;51113;53.646;-113.674;2023-09-30T07:15:55;94011.66;;;1.94;100.00
64687;BME280;51113;53.646;-113.674;2023-09-30T07:18:23;94000.25;;;1.90;100.00
64687;BME280;51113;53.646;-113.674;2023-09-30T07:20:53;94010.09;;;1.93;100.00
64687;BME280;51113;53.646;-113.674;2023-09-30T07:23:21;94018.34;;;2.02;100.00
64687;BME280;51113;53.646;-113.674;2023-09-30T07:25:50;94010.47;;;1.97;100.00
64687;BME280;51113;53.646;-113.674;2023-09-30T07:28:18;94013.41;;;2.13;100.00
64687;BME280;51113;53.646;-113.674;2023-09-30T07:30:47;94012.81;;;2.11;100.00
64687;BME280;51113;53.646;-113.674;2023-09-30T07:33:15;94017.53;;;2.21;100.00
64687;BME280;51113;53.646;-113.674;2023-09-30T07:35:44;94015.34;;;2.31;100.00
64687;BME280;51113;53.646;-113.674;2023-09-30T07:38:12;94023.03;;;2.38;100.00
64687;BME280;51113;53.646;-113.674;2023-09-30T07:40:41;94028.88;;;2.58;100.00
64687;BME280;51113;53.646;-113.674;2023-09-30T07:43:10;94031.66;;;2.56;100.00
64687;BME280;51113;53.646;-113.674;2023-09-30T07:45:40;94030.88;;;2.56;100.00
64687;BME280;51113;53.646;-113.674;2023-09-30T07:48:11;94031.63;;;2.70;100.00
64687;BME280;51113;53.646;-113.674;2023-09-30T07:50:40;94035.56;;;2.72;100.00
64687;BME280;51113;53.646;-113.674;2023-09-30T07:53:10;94048.56;;;2.71;100.00
64687;BME280;51113;53.646;-113.674;2023-09-30T07:55:40;94047.38;;;2.73;100.00
64687;BME280;51113;53.646;-113.674;2023-09-30T07:58:08;94048.97;;;2.68;100.00
64687;BME280;51113;53.646;-113.674;2023-09-30T08:00:37;94045.41;;;2.75;100.00
64687;BME280;51113;53.646;-113.674;2023-09-30T08:03:07;94055.47;;;2.77;100.00
64687;BME280;51113;53.646;-113.674;2023-09-30T08:05:35;94057.25;;;2.70;100.00
64687;BME280;51113;53.646;-113.674;2023-09-30T08:08:05;94054.25;;;2.86;100.00
64687;BME280;51113;53.646;-113.674;2023-09-30T08:10:34;94056.44;;;2.76;100.00
64687;BME280;51113;53.646;-113.674;2023-09-30T08:13:04;94058.59;;;2.79;100.00
64687;BME280;51113;53.646;-113.674;2023-09-30T08:15:33;94056.81;;;2.86;100.00
64687;BME280;51113;53.646;-113.674;2023-09-30T08:18:03;94055.06;;;2.80;100.00
64687;BME280;51113;53.646;-113.674;2023-09-30T08:20:34;94054.25;;;2.86;100.00
64687;BME280;51113;53.646;-113.674;2023-09-30T08:23:03;94048.56;;;2.77;100.00
64687;BME280;51113;53.646;-113.674;2023-09-30T08:25:31;94058.03;;;2.77;100.00
64687;BME280;51113;53.646;-113.674;2023-09-30T08:28:00;94055.03;;;2.86;100.00
64687;BME280;51113;53.646;-113.674;2023-09-30T08:30:28;94062.94;;;2.78;100.00
64687;BME280;51113;53.646;-113.674;2023-09-30T08:32:58;94069.47;;;2.68;100.00
64687;BME280;51113;53.646;-113.674;2023-09-30T08:35:27;94063.22;;;2.50;100.00
64687;BME280;51113;53.646;-113.674;2023-09-30T08:37:55;94069.94;;;2.45;100.00
64687;BME280;51113;53.646;-113.674;2023-09-30T08:40:26;94074.88;;;2.33;100.00
64687;BME280;51113;53.646;-113.674;2023-09-30T08:42:55;94072.91;;;2.35;100.00
64687;BME280;51113;53.646;-113.674;2023-09-30T08:45:24;94062.84;;;2.27;100.00
64687;BME280;51113;53.646;-113.674;2023-09-30T08:47:56;94077.84;;;2.30;100.00
64687;BME280;51113;53.646;-113.674;2023-09-30T08:50:25;94066.00;;;2.29;100.00
64687;BME280;51113;53.646;-113.674;2023-09-30T08:52:53;94081.19;;;2.24;100.00
64687;BME280;51113;53.646;-113.674;2023-09-30T08:55:24;94077.44;;;2.20;100.00
64687;BME280;51113;53.646;-113.674;2023-09-30T08:57:54;94071.34;;;2.21;100.00
64687;BME280;51113;53.646;-113.674;2023-09-30T09:00:27;94072.31;;;2.20;100.00
64687;BME280;51113;53.646;-113.674;2023-09-30T09:02:56;94077.06;;;2.16;100.00
64687;BME280;51113;53.646;-113.674;2023-09-30T09:05:24;94079.22;;;2.06;100.00
64687;BME280;51113;53.646;-113.674;2023-09-30T09:07:53;94079.22;;;1.93;100.00
64687;BME280;51113;53.646;-113.674;2023-09-30T09:10:22;94082.56;;;1.93;100.00
64687;BME280;51113;53.646;-113.674;2023-09-30T09:12:56;94083.75;;;1.91;100.00
64687;BME280;51113;53.646;-113.674;2023-09-30T09:15:27;94084.13;;;1.81;100.00
64687;BME280;51113;53.646;-113.674;2023-09-30T09:17:59;94077.63;;;1.85;100.00
64687;BME280;51113;53.646;-113.674;2023-09-30T09:20:28;94083.16;;;1.96;100.00
64687;BME280;51113;53.646;-113.674;2023-09-30T09:22:56;94079.41;;;1.78;100.00
64687;BME280;51113;53.646;-113.674;2023-09-30T09:25:28;94078.22;;;1.81;100.00
64687;BME280;51113;53.646;-113.674;2023-09-30T09:27:56;94077.44;;;1.74;100.00
64687;BME280;51113;53.646;-113.674;2023-09-30T09:30:26;94080.38;;;1.77;100.00
64687;BME280;51113;53.646;-113.674;2023-09-30T09:33:00;94078.81;;;1.70;100.00
64687;BME280;51113;53.646;-113.674;2023-09-30T09:35:31;94082.34;;;1.69;100.00
64687;BME280;51113;53.646;-113.674;2023-09-30T09:40:33;94092.78;;;1.67;100.00
64687;BME280;51113;53.646;-113.674;2023-09-30T09:43:03;94092.94;;;1.52;100.00
64687;BME280;51113;53.646;-113.674;2023-09-30T09:45:36;94094.50;;;1.47;100.00
64687;BME280;51113;53.646;-113.674;2023-09-30T09:48:09;94093.53;;;1.48;100.00
64687;BME280;51113;53.646;-113.674;2023-09-30T09:50:37;94091.34;;;1.38;100.00
64687;BME280;51113;53.646;-113.674;2023-09-30T09:53:07;94095.81;;;1.23;100.00
64687;BME280;51113;53.646;-113.674;2023-09-30T09:55:37;94098.97;;;1.25;100.00
64687;BME280;51113;53.646;-113.674;2023-09-30T09:58:07;94097.00;;;1.27;100.00
64687;BME280;51113;53.646;-113.674;2023-09-30T10:00:38;94107.22;;;1.20;100.00
64687;BME280;51113;53.646;-113.674;2023-09-30T10:03:07;94101.84;;;1.02;100.00
64687;BME280;51113;53.646;-113.674;2023-09-30T10:05:38;94102.28;;;1.12;100.00
64687;BME280;51113;53.646;-113.674;2023-09-30T10:08:12;94106.03;;;1.16;100.00
64687;BME280;51113;53.646;-113.674;2023-09-30T10:10:44;94097.91;;;1.00;100.00
64687;BME280;51113;53.646;-113.674;2023-09-30T10:19:19;94104.94;;;0.91;100.00
64687;BME280;51113;53.646;-113.674;2023-09-30T10:24:56;94115.41;;;1.03;100.00
64687;BME280;51113;53.646;-113.674;2023-09-30T10:40:56;94130.19;;;1.07;100.00
64687;BME280;51113;53.646;-113.674;2023-09-30T10:43:39;94130.88;;;0.88;100.00
64687;BME280;51113;53.646;-113.674;2023-09-30T10:48:55;94126.28;;;0.77;100.00
64687;BME280;51113;53.646;-113.674;2023-09-30T10:51:25;94126.63;;;0.67;100.00
64687;BME280;51113;53.646;-113.674;2023-09-30T10:53:54;94124.25;;;0.66;100.00
64687;BME280;51113;53.646;-113.674;2023-09-30T10:56:35;94123.81;;;0.55;100.00
64687;BME280;51113;53.646;-113.674;2023-09-30T10:59:03;94128.91;;;0.55;100.00
64687;BME280;51113;53.646;-113.674;2023-09-30T11:01:34;94132.44;;;0.54;100.00
64687;BME280;51113;53.646;-113.674;2023-09-30T11:04:04;94124.56;;;0.49;100.00
64687;BME280;51113;53.646;-113.674;2023-09-30T11:06:34;94117.88;;;0.48;100.00
64687;BME280;51113;53.646;-113.674;2023-09-30T11:09:03;94122.38;;;0.46;100.00
64687;BME280;51113;53.646;-113.674;2023-09-30T11:11:52;94122.75;;;0.43;100.00
64687;BME280;51113;53.646;-113.674;2023-09-30T11:14:29;94125.44;;;0.35;100.00
64687;BME280;51113;53.646;-113.674;2023-09-30T11:17:00;94117.13;;;0.26;100.00
64687;BME280;51113;53.646;-113.674;2023-09-30T11:19:45;94132.22;;;0.21;100.00
64687;BME280;51113;53.646;-113.674;2023-09-30T11:22:15;94139.44;;;0.18;100.00
64687;BME280;51113;53.646;-113.674;2023-09-30T11:24:44;94130.03;;;0.18;100.00
64687;BME280;51113;53.646;-113.674;2023-09-30T11:27:22;94135.31;;;0.17;100.00
64687;BME280;51113;53.646;-113.674;2023-09-30T11:29:54;94139.41;;;0.11;100.00
64687;BME280;51113;53.646;-113.674;2023-09-30T11:32:28;94145.06;;;0.07;100.00
64687;BME280;51113;53.646;-113.674;2023-09-30T11:34:57;94134.84;;;0.07;100.00
64687;BME280;51113;53.646;-113.674;2023-09-30T11:37:33;94132.09;;;0.08;100.00
64687;BME280;51113;53.646;-113.674;2023-09-30T11:40:14;94132.53;;;0.12;100.00
64687;BME280;51113;53.646;-113.674;2023-09-30T11:43:09;94141.41;;;0.16;100.00
64687;BME280;51113;53.646;-113.674;2023-09-30T11:45:40;94143.91;;;0.09;100.00
64687;BME280;51113;53.646;-113.674;2023-09-30T11:48:18;94149.00;;;0.09;100.00
64687;BME280;51113;53.646;-113.674;2023-09-30T11:50:52;94147.97;;;0.04;100.00
64687;BME280;51113;53.646;-113.674;2023-09-30T11:53:21;94154.06;;;0.03;100.00
64687;BME280;51113;53.646;-113.674;2023-09-30T11:55:50;94154.19;;;-0.06;100.00
64687;BME280;51113;53.646;-113.674;2023-09-30T11:58:18;94155.31;;;-0.08;100.00
64687;BME280;51113;53.646;-113.674;2023-09-30T12:00:47;94157.28;;;-0.10;100.00
64687;BME280;51113;53.646;-113.674;2023-09-30T12:03:19;94155.28;;;-0.15;100.00
64687;BME280;51113;53.646;-113.674;2023-09-30T12:05:48;94157.56;;;-0.20;100.00
64687;BME280;51113;53.646;-113.674;2023-09-30T12:08:17;94149.81;;;-0.12;100.00
64687;BME280;51113;53.646;-113.674;2023-09-30T12:10:47;94155.69;;;-0.11;100.00
64687;BME280;51113;53.646;-113.674;2023-09-30T12:13:16;94162.19;;;-0.09;100.00
64687;BME280;51113;53.646;-113.674;2023-09-30T12:15:45;94159.03;;;-0.11;100.00
64687;BME280;51113;53.646;-113.674;2023-09-30T12:18:14;94155.63;;;-0.18;100.00
64687;BME280;51113;53.646;-113.674;2023-09-30T12:20:45;94151.13;;;-0.16;100.00
64687;BME280;51113;53.646;-113.674;2023-09-30T12:23:13;94158.97;;;-0.17;100.00
64687;BME280;51113;53.646;-113.674;2023-09-30T12:25:42;94153.88;;;-0.17;100.00
64687;BME280;51113;53.646;-113.674;2023-09-30T12:28:14;94159.94;;;0.03;100.00
64687;BME280;51113;53.646;-113.674;2023-09-30T12:30:43;94153.56;;;0.14;100.00
64687;BME280;51113;53.646;-113.674;2023-09-30T12:33:12;94154.22;;;0.22;100.00
64687;BME280;51113;53.646;-113.674;2023-09-30T12:35:41;94150.81;;;0.15;100.00
64687;BME280;51113;53.646;-113.674;2023-09-30T12:38:09;94156.66;;;0.09;100.00
64687;BME280;51113;53.646;-113.674;2023-09-30T12:40:38;94162.44;;;0.18;100.00
64687;BME280;51113;53.646;-113.674;2023-09-30T12:43:07;94165.72;;;0.12;100.00
64687;BME280;51113;53.646;-113.674;2023-09-30T12:45:36;94160.97;;;0.09;100.00
64687;BME280;51113;53.646;-113.674;2023-09-30T12:48:06;94163.09;;;0.05;100.00
64687;BME280;51113;53.646;-113.674;2023-09-30T12:50:35;94160.63;;;-0.10;100.00
64687;BME280;51113;53.646;-113.674;2023-09-30T12:53:03;94166.94;;;-0.06;100.00
64687;BME280;51113;53.646;-113.674;2023-09-30T12:55:33;94171.78;;;-0.11;100.00
64687;BME280;51113;53.646;-113.674;2023-09-30T12:58:01;94169.19;;;-0.17;100.00
64687;BME280;51113;53.646;-113.674;2023-09-30T13:00:31;94177.38;;;-0.22;100.00
64687;BME280;51113;53.646;-113.674;2023-09-30T13:03:01;94179.69;;;-0.27;100.00
64687;BME280;51113;53.646;-113.674;2023-09-30T13:05:30;94189.28;;;-0.29;100.00
64687;BME280;51113;53.646;-113.674;2023-09-30T13:07:59;94178.03;;;-0.35;100.00
64687;BME280;51113;53.646;-113.674;2023-09-30T13:10:27;94192.19;;;-0.32;100.00
64687;BME280;51113;53.646;-113.674;2023-09-30T13:12:58;94188.66;;;-0.31;100.00
64687;BME280;51113;53.646;-113.674;2023-09-30T13:15:27;94194.84;;;-0.40;100.00
64687;BME280;51113;53.646;-113.674;2023-09-30T13:17:55;94196.78;;;-0.42;100.00